createdAt,value
2023-05-10T00:01:01.947Z,100.23
2023-05-10T00:03:28.884Z,97.00
2023-05-10T00:05:55.824Z,98.63
2023-05-10T00:08:22.702Z,102.80
2023-05-10T00:10:50.174Z,102.10
2023-05-10T00:13:17.199Z,102.43
2023-05-10T00:15:43.951Z,112.83
2023-05-10T00:18:10.778Z,108.90
2023-05-10T00:20:37.634Z,101.90
2023-05-10T00:23:04.598Z,123.73
2023-05-10T00:25:31.444Z,113.37
2023-05-10T00:27:58.538Z,115.17
2023-05-10T00:30:25.682Z,121.00
2023-05-10T00:32:52.944Z,114.40
2023-05-10T00:35:20.002Z,106.30
2023-05-10T00:37:47.117Z,111.00
2023-05-10T00:40:14.610Z,112.03
2023-05-10T00:42:44.412Z,110.23
2023-05-10T00:45:11.820Z,111.00
2023-05-10T00:47:39.009Z,114.33
2023-05-10T00:50:07.019Z,106.93
2023-05-10T00:52:34.228Z,126.97
2023-05-10T00:55:01.420Z,125.60
2023-05-10T00:57:28.408Z,119.17
2023-05-10T00:59:55.250Z,110.03
2023-05-10T01:02:22.072Z,118.27
2023-05-10T01:04:50.417Z,108.87
2023-05-10T01:07:17.885Z,102.63
2023-05-10T01:09:44.824Z,103.20
2023-05-10T01:12:12.309Z,120.10
2023-05-10T01:14:39.216Z,121.13
2023-05-10T01:17:08.146Z,122.43
2023-05-10T01:19:37.934Z,118.17
2023-05-10T01:22:36.147Z,104.27
2023-05-10T01:25:12.780Z,120.50
2023-05-10T01:28:07.637Z,113.80
2023-05-10T01:31:16.840Z,114.90
2023-05-10T01:34:01.696Z,119.30
2023-05-10T01:36:38.170Z,122.83
2023-05-10T01:39:54.417Z,113.47
2023-05-10T01:42:29.203Z,114.83
2023-05-10T01:45:26.335Z,113.60
2023-05-10T01:48:09.217Z,121.73
2023-05-10T01:50:39.202Z,108.50
2023-05-10T01:53:09.005Z,124.33
2023-05-10T01:55:41.508Z,112.93
2023-05-10T01:58:11.294Z,120.30
2023-05-10T02:00:43.715Z,134.97
2023-05-10T02:03:12.576Z,138.67
2023-05-10T02:05:40.649Z,130.40
2023-05-10T02:08:08.624Z,125.77
2023-05-10T02:10:38.578Z,126.97
2023-05-10T02:13:08.225Z,126.30
2023-05-10T02:15:36.108Z,145.83
2023-05-10T02:18:04.598Z,128.97
2023-05-10T02:20:33.386Z,126.73
2023-05-10T02:23:01.937Z,136.77
2023-05-10T02:25:32.481Z,126.87
2023-05-10T02:28:02.733Z,132.40
2023-05-10T02:30:32.200Z,121.87
2023-05-10T02:33:00.716Z,128.87
2023-05-10T02:35:28.350Z,123.13
2023-05-10T02:37:55.743Z,115.17
2023-05-10T02:40:26.177Z,126.37
2023-05-10T02:42:57.810Z,131.17
2023-05-10T02:45:29.093Z,123.10
2023-05-10T02:47:57.314Z,130.93
2023-05-10T02:50:28.422Z,127.57
2023-05-10T02:53:00.864Z,156.90
2023-05-10T02:55:36.364Z,138.37
2023-05-10T02:58:04.704Z,150.10
2023-05-10T03:00:32.279Z,161.13
2023-05-10T03:02:59.239Z,173.37
2023-05-10T03:05:27.198Z,157.67
2023-05-10T03:07:54.636Z,171.10
2023-05-10T03:10:27.773Z,181.77
2023-05-10T03:13:25.950Z,177.10
2023-05-10T03:16:04.909Z,167.00
2023-05-10T03:18:55.650Z,185.33
2023-05-10T03:21:26.881Z,194.77
2023-05-10T03:24:04.083Z,202.80
2023-05-10T03:26:31.420Z,177.03
2023-05-10T03:29:07.403Z,190.30
2023-05-10T03:31:34.358Z,179.63
2023-05-10T03:34:01.464Z,161.67
2023-05-10T03:36:28.263Z,175.93
2023-05-10T03:38:56.194Z,173.23
2023-05-10T03:41:23.326Z,174.60
2023-05-10T03:43:50.282Z,143.27
2023-05-10T03:46:17.128Z,158.90
2023-05-10T03:48:44.924Z,182.57
2023-05-10T03:51:11.804Z,186.60
2023-05-10T03:53:40.111Z,168.70
2023-05-10T03:56:07.394Z,160.50
2023-05-10T03:58:34.272Z,164.87
2023-05-10T04:01:01.134Z,140.87
2023-05-10T04:03:28.106Z,160.47
2023-05-10T04:06:04.978Z,166.23
2023-05-10T04:08:32.501Z,178.00
2023-05-10T04:11:10.057Z,142.00
2023-05-10T04:13:36.925Z,172.93
2023-05-10T04:16:04.242Z,159.37
2023-05-10T04:18:32.110Z,166.47
2023-05-10T04:20:59.045Z,152.63
2023-05-10T04:23:25.807Z,179.07
2023-05-10T04:25:52.615Z,175.07
2023-05-10T04:28:19.472Z,166.03
2023-05-10T04:30:46.727Z,203.73
2023-05-10T04:33:13.500Z,190.80
2023-05-10T04:35:41.076Z,179.07
2023-05-10T04:38:07.933Z,176.53
2023-05-10T04:40:35.326Z,183.27
2023-05-10T04:43:02.444Z,168.33
2023-05-10T04:45:29.323Z,168.07
2023-05-10T04:47:56.395Z,170.97
2023-05-10T04:50:23.427Z,178.87
2023-05-10T04:52:50.184Z,191.33
2023-05-10T04:55:17.036Z,187.57
2023-05-10T04:57:44.029Z,168.20
2023-05-10T05:00:11.484Z,172.93
2023-05-10T05:02:38.399Z,201.87
2023-05-10T05:05:05.820Z,196.70
2023-05-10T05:07:32.866Z,178.10
2023-05-10T05:09:59.756Z,190.43
2023-05-10T05:12:26.599Z,189.07
2023-05-10T05:14:53.573Z,192.40
2023-05-10T05:17:20.460Z,188.73
2023-05-10T05:19:47.311Z,205.97
2023-05-10T05:22:14.208Z,209.83
2023-05-10T05:24:41.069Z,177.00
2023-05-10T05:27:07.926Z,233.57
2023-05-10T05:29:34.921Z,214.87
2023-05-10T05:32:01.918Z,214.63
2023-05-10T05:34:28.839Z,202.53
2023-05-10T05:36:55.668Z,182.30
2023-05-10T05:39:23.329Z,215.87
2023-05-10T05:41:50.139Z,181.43
2023-05-10T05:44:17.049Z,190.47
2023-05-10T05:46:43.873Z,213.17
2023-05-10T05:49:10.884Z,179.77
2023-05-10T05:51:37.662Z,232.83
2023-05-10T05:54:05.310Z,180.27
2023-05-10T05:56:32.117Z,196.70
2023-05-10T05:58:58.914Z,204.13
2023-05-10T06:01:25.844Z,178.17
2023-05-10T06:03:53.381Z,160.20
2023-05-10T06:06:20.686Z,170.77
2023-05-10T06:08:47.535Z,174.30
2023-05-10T06:11:14.352Z,160.17
2023-05-10T06:13:41.262Z,181.40
2023-05-10T06:16:08.172Z,142.50
2023-05-10T06:18:35.481Z,136.53
2023-05-10T06:21:02.608Z,132.03
2023-05-10T06:23:29.795Z,122.40
2023-05-10T06:25:56.611Z,121.47
2023-05-10T06:28:23.452Z,124.10
2023-05-10T06:30:50.337Z,124.93
2023-05-10T06:33:17.080Z,141.33
2023-05-10T06:35:43.920Z,123.23
2023-05-10T06:38:10.729Z,120.37
2023-05-10T06:40:37.484Z,146.80
2023-05-10T06:43:04.323Z,122.13
2023-05-10T06:45:31.133Z,134.30
2023-05-10T06:47:58.012Z,141.33
2023-05-10T06:50:24.836Z,152.33
2023-05-10T06:52:53.080Z,129.00
2023-05-10T06:55:20.124Z,114.23
2023-05-10T06:57:47.076Z,105.30
2023-05-10T07:00:14.722Z,97.77
2023-05-10T07:02:41.668Z,111.33
2023-05-10T07:05:09.550Z,99.00
2023-05-10T07:07:36.423Z,84.80
2023-05-10T07:10:03.852Z,76.07
2023-05-10T07:12:30.678Z,71.47
2023-05-10T07:14:57.765Z,71.63
2023-05-10T07:17:24.689Z,64.87
2023-05-10T07:19:51.581Z,67.23
2023-05-10T07:22:18.492Z,68.03
2023-05-10T07:24:45.674Z,65.70
2023-05-10T07:27:13.768Z,62.90
2023-05-10T07:29:40.519Z,64.23
2023-05-10T07:32:07.557Z,67.63
2023-05-10T07:34:34.427Z,62.30
2023-05-10T07:37:01.922Z,65.70
2023-05-10T07:39:28.981Z,64.03
2023-05-10T07:41:56.542Z,66.27
2023-05-10T07:44:24.027Z,64.17
2023-05-10T07:46:51.494Z,66.00
2023-05-10T07:49:18.373Z,62.40
2023-05-10T07:51:45.225Z,66.30
2023-05-10T07:54:12.314Z,62.53
2023-05-10T07:56:40.635Z,65.70
2023-05-10T07:59:09.287Z,62.50
2023-05-10T08:01:37.068Z,62.97
2023-05-10T08:04:04.063Z,60.70
2023-05-10T08:06:31.432Z,60.70
2023-05-10T08:08:58.564Z,63.73
2023-05-10T08:11:25.862Z,58.87
2023-05-10T08:13:54.053Z,62.43
2023-05-10T08:16:21.303Z,64.20
2023-05-10T08:18:48.677Z,62.23
2023-05-10T08:21:16.431Z,64.47
2023-05-10T08:23:44.984Z,64.87
2023-05-10T08:26:12.522Z,65.03
2023-05-10T08:28:39.427Z,64.70
2023-05-10T08:31:06.741Z,64.60
2023-05-10T08:33:33.856Z,66.33
2023-05-10T08:36:00.768Z,61.40
2023-05-10T08:38:27.547Z,68.20
2023-05-10T08:40:59.931Z,69.33
2023-05-10T08:43:31.132Z,65.43
2023-05-10T08:46:01.701Z,67.43
2023-05-10T08:48:30.801Z,67.77
2023-05-10T08:51:00.964Z,67.97
2023-05-10T08:53:29.730Z,68.53
2023-05-10T08:55:56.736Z,62.40
2023-05-10T08:58:23.748Z,57.03
2023-05-10T09:00:53.862Z,57.30
2023-05-10T09:03:20.823Z,63.67
2023-05-10T09:05:48.554Z,59.43
2023-05-10T09:08:17.415Z,68.03
2023-05-10T09:10:45.476Z,64.83
2023-05-10T09:13:12.987Z,68.47
2023-05-10T09:15:39.881Z,68.37
2023-05-10T09:18:06.934Z,69.53
2023-05-10T09:20:33.877Z,70.77
2023-05-10T09:23:00.850Z,71.67
2023-05-10T09:25:28.089Z,70.30
2023-05-10T09:27:55.741Z,73.27
2023-05-10T09:30:26.612Z,67.10
2023-05-10T09:32:54.111Z,58.10
2023-05-10T09:35:25.079Z,62.10
2023-05-10T09:37:55.207Z,59.90
2023-05-10T09:40:25.085Z,64.13
2023-05-10T09:42:56.380Z,65.90
2023-05-10T09:45:24.623Z,61.43
2023-05-10T09:47:51.712Z,63.27
2023-05-10T09:50:19.715Z,54.17
2023-05-10T09:52:52.188Z,62.63
2023-05-10T09:55:24.507Z,64.30
2023-05-10T09:58:01.077Z,59.57
2023-05-10T10:00:29.086Z,55.57
2023-05-10T10:03:00.592Z,54.73
2023-05-10T10:05:35.297Z,59.10
2023-05-10T10:08:07.162Z,55.90
2023-05-10T10:10:34.859Z,48.33
2023-05-10T10:13:02.390Z,54.30
2023-05-10T10:15:29.260Z,49.30
2023-05-10T10:17:56.192Z,64.40
2023-05-10T10:20:23.865Z,61.20
2023-05-10T10:22:50.716Z,66.73
2023-05-10T10:25:19.884Z,68.30
2023-05-10T10:27:52.504Z,63.27
2023-05-10T10:30:40.533Z,49.87
2023-05-10T10:33:34.843Z,44.47
2023-05-10T10:36:04.261Z,53.00
2023-05-10T10:39:01.601Z,58.73
2023-05-10T10:41:31.210Z,60.03
2023-05-10T10:44:26.218Z,60.13
2023-05-10T10:47:10.239Z,58.00
2023-05-10T10:49:45.592Z,54.33
2023-05-10T10:52:29.596Z,61.87
2023-05-10T10:55:10.413Z,57.37
2023-05-10T10:58:05.156Z,56.77
2023-05-10T11:00:33.949Z,62.70
2023-05-10T11:03:17.983Z,64.73
2023-05-10T11:05:49.399Z,66.67
2023-05-10T11:08:34.013Z,64.83
2023-05-10T11:11:01.862Z,62.70
2023-05-10T11:13:33.960Z,54.43
2023-05-10T11:16:11.774Z,57.00
2023-05-10T11:18:39.029Z,58.67
2023-05-10T11:21:06.319Z,48.63
2023-05-10T11:23:48.959Z,59.40
2023-05-10T11:26:15.836Z,66.83
2023-05-10T11:28:46.570Z,62.63
2023-05-10T11:31:18.462Z,79.87
2023-05-10T11:33:49.305Z,83.17
2023-05-10T11:36:18.078Z,81.77
2023-05-10T11:38:45.264Z,85.63
2023-05-10T11:41:13.288Z,78.90
2023-05-10T11:43:41.199Z,55.47
2023-05-10T11:46:12.512Z,53.20
2023-05-10T11:48:43.777Z,59.47
2023-05-10T11:51:11.962Z,64.83
2023-05-10T11:53:39.213Z,71.10
2023-05-10T11:56:10.803Z,49.23
2023-05-10T11:58:40.898Z,41.73
2023-05-10T12:01:08.922Z,44.03
2023-05-10T12:03:36.834Z,65.40
2023-05-10T12:06:04.208Z,74.90
2023-05-10T12:08:31.955Z,83.67
2023-05-10T12:11:11.395Z,71.90
2023-05-10T12:13:43.202Z,65.10
2023-05-10T12:16:30.531Z,56.57
2023-05-10T12:18:59.439Z,83.70
2023-05-10T12:21:27.421Z,68.93
2023-05-10T12:23:59.729Z,52.37
2023-05-10T12:26:30.189Z,92.63
2023-05-10T12:29:20.000Z,90.70
2023-05-10T12:32:00.933Z,84.80
2023-05-10T12:34:38.108Z,57.23
2023-05-10T12:37:05.410Z,47.40
2023-05-10T12:39:43.557Z,86.43
2023-05-10T12:42:11.269Z,93.93
2023-05-10T12:44:38.059Z,91.70
2023-05-10T12:47:04.871Z,77.53
2023-05-10T12:49:31.844Z,81.03
2023-05-10T12:51:58.698Z,86.77
2023-05-10T12:54:25.705Z,86.17
2023-05-10T12:56:52.471Z,89.73
2023-05-10T12:59:19.241Z,81.20
2023-05-10T13:01:46.141Z,85.83
2023-05-10T13:04:13.100Z,90.97
2023-05-10T13:06:40.090Z,89.83
2023-05-10T13:09:07.032Z,85.67
2023-05-10T13:11:33.986Z,85.33
2023-05-10T13:14:01.194Z,88.60
2023-05-10T13:16:28.268Z,90.10
2023-05-10T13:18:55.096Z,89.57
2023-05-10T13:21:22.005Z,91.13
2023-05-10T13:23:48.832Z,84.47
2023-05-10T13:26:15.829Z,84.93
2023-05-10T13:28:42.682Z,79.90
2023-05-10T13:31:09.524Z,78.53
2023-05-10T13:33:36.338Z,81.63
2023-05-10T13:36:03.338Z,77.97
2023-05-10T13:38:30.144Z,80.93
2023-05-10T13:40:56.972Z,78.43
2023-05-10T13:43:24.574Z,75.37
2023-05-10T13:45:51.379Z,73.47
2023-05-10T13:48:18.172Z,84.27
2023-05-10T13:50:45.008Z,80.13
2023-05-10T13:53:12.097Z,79.13
2023-05-10T13:55:38.936Z,74.57
2023-05-10T13:58:05.949Z,71.67
2023-05-10T14:00:32.901Z,77.97
2023-05-10T14:02:59.837Z,74.67
2023-05-10T14:05:27.029Z,75.57
2023-05-10T14:07:54.655Z,74.30
2023-05-10T14:10:21.532Z,72.03
2023-05-10T14:12:48.708Z,73.80
2023-05-10T14:15:15.889Z,73.23
2023-05-10T14:17:43.035Z,72.60
2023-05-10T14:20:10.328Z,75.93
2023-05-10T14:22:37.143Z,78.27
2023-05-10T14:25:04.331Z,74.37
2023-05-10T14:27:31.441Z,77.00
2023-05-10T14:29:58.357Z,80.53
2023-05-10T14:32:25.209Z,80.07
2023-05-10T14:34:52.035Z,79.57
2023-05-10T14:37:18.806Z,77.50
2023-05-10T14:39:45.670Z,78.07
2023-05-10T14:42:13.103Z,76.13
2023-05-10T14:44:40.653Z,78.77
2023-05-10T14:47:07.820Z,76.33
2023-05-10T14:49:36.430Z,77.43
2023-05-10T14:52:04.067Z,76.43
2023-05-10T14:54:31.007Z,75.77
2023-05-10T14:56:57.758Z,78.53
2023-05-10T14:59:24.618Z,76.60
2023-05-10T15:01:51.793Z,75.77
2023-05-10T15:04:19.094Z,76.97
2023-05-10T15:06:46.388Z,75.67
2023-05-10T15:09:13.167Z,73.03
2023-05-10T15:11:40.056Z,74.67
2023-05-10T15:14:07.194Z,73.77
2023-05-10T15:16:36.063Z,71.90
2023-05-10T15:19:03.396Z,75.37
2023-05-10T15:21:35.922Z,70.57
2023-05-10T15:24:02.825Z,62.83
2023-05-10T15:26:29.691Z,64.67
2023-05-10T15:28:56.422Z,62.87
2023-05-10T15:31:23.370Z,67.87
2023-05-10T15:33:50.191Z,68.50
2023-05-10T15:36:18.654Z,69.73
2023-05-10T15:38:45.516Z,65.13
2023-05-10T15:41:12.753Z,70.87
2023-05-10T15:43:39.522Z,71.50
2023-05-10T15:46:07.057Z,72.07
2023-05-10T15:48:34.292Z,69.17
2023-05-10T15:51:01.158Z,66.07
2023-05-10T15:53:27.985Z,72.73
2023-05-10T15:55:55.145Z,66.03
2023-05-10T15:58:21.911Z,69.83
2023-05-10T16:00:48.817Z,68.00
2023-05-10T16:03:16.278Z,62.47
2023-05-10T16:05:43.199Z,67.87
2023-05-10T16:08:10.000Z,49.87
2023-05-10T16:10:38.271Z,56.80
2023-05-10T16:13:05.198Z,56.80
2023-05-10T16:15:32.269Z,55.27
2023-05-10T16:17:59.289Z,60.23
2023-05-10T16:20:27.049Z,61.17
2023-05-10T16:22:53.948Z,61.30
2023-05-10T16:25:21.265Z,64.13
2023-05-10T16:27:48.091Z,61.83
2023-05-10T16:30:15.008Z,59.00
2023-05-10T16:32:41.886Z,59.13
2023-05-10T16:35:09.186Z,59.37
2023-05-10T16:37:36.100Z,60.57
2023-05-10T16:40:03.127Z,61.57
2023-05-10T16:42:30.427Z,63.47
2023-05-10T16:44:57.425Z,66.17
2023-05-10T16:47:26.693Z,68.40
2023-05-10T16:49:53.851Z,65.10
2023-05-10T16:52:20.680Z,65.57
2023-05-10T16:54:47.580Z,60.67
2023-05-10T16:57:14.364Z,62.37
2023-05-10T16:59:41.406Z,62.63
2023-05-10T17:02:08.389Z,65.37
2023-05-10T17:04:35.261Z,65.47
2023-05-10T17:07:02.272Z,59.43
2023-05-10T17:09:29.302Z,60.07
2023-05-10T17:11:56.145Z,49.73
2023-05-10T17:14:23.306Z,42.00
2023-05-10T17:16:52.677Z,39.47
2023-05-10T17:19:19.766Z,41.33
2023-05-10T17:21:46.652Z,40.87
2023-05-10T17:24:14.021Z,50.10
2023-05-10T17:26:41.566Z,49.50
2023-05-10T17:29:08.564Z,42.97
2023-05-10T17:31:35.474Z,43.60
2023-05-10T17:34:05.393Z,41.50
2023-05-10T17:36:33.366Z,45.97
2023-05-10T17:39:00.998Z,48.70
2023-05-10T17:41:27.865Z,43.00
2023-05-10T17:43:55.198Z,49.10
2023-05-10T17:46:22.283Z,49.53
2023-05-10T17:48:49.364Z,47.27
2023-05-10T17:51:16.204Z,50.87
2023-05-10T17:53:43.228Z,42.00
2023-05-10T17:56:10.014Z,49.13
2023-05-10T17:58:38.438Z,54.37
2023-05-10T18:01:05.701Z,43.50
2023-05-10T18:03:32.921Z,39.63
2023-05-10T18:06:00.397Z,55.73
2023-05-10T18:08:28.693Z,53.27
2023-05-10T18:10:55.652Z,63.47
2023-05-10T18:13:22.447Z,64.53
2023-05-10T18:15:49.260Z,68.27
2023-05-10T18:18:17.088Z,69.17
2023-05-10T18:20:45.069Z,68.17
2023-05-10T18:23:12.173Z,64.50
2023-05-10T18:25:39.073Z,61.70
2023-05-10T18:28:07.879Z,60.97
2023-05-10T18:30:34.742Z,63.67
2023-05-10T18:33:01.628Z,57.50
2023-05-10T18:35:28.571Z,58.00
2023-05-10T18:37:56.171Z,58.90
2023-05-10T18:40:22.984Z,60.23
2023-05-10T18:42:50.575Z,53.47
2023-05-10T18:45:17.797Z,51.40
2023-05-10T18:47:44.911Z,49.63
2023-05-10T18:50:12.808Z,51.50
2023-05-10T18:52:39.620Z,56.23
2023-05-10T18:55:07.259Z,54.40
2023-05-10T18:57:40.892Z,56.90
2023-05-10T19:00:10.335Z,56.03
2023-05-10T19:02:40.747Z,63.33
2023-05-10T19:05:08.662Z,65.07
2023-05-10T19:07:35.496Z,63.40
2023-05-10T19:10:03.053Z,60.33
2023-05-10T19:12:30.557Z,60.93
2023-05-10T19:14:57.374Z,57.30
2023-05-10T19:17:24.394Z,59.47
2023-05-10T19:19:51.243Z,68.03
2023-05-10T19:22:28.267Z,70.07
2023-05-10T19:25:03.653Z,67.57
2023-05-10T19:27:30.949Z,69.87
2023-05-10T19:29:57.975Z,65.87
2023-05-10T19:32:25.325Z,69.73
2023-05-10T19:34:52.251Z,69.53
2023-05-10T19:37:19.046Z,66.10
2023-05-10T19:39:45.986Z,71.53
2023-05-10T19:42:13.045Z,71.00
2023-05-10T19:44:40.034Z,63.40
2023-05-10T19:47:08.671Z,63.07
2023-05-10T19:49:38.753Z,63.67
2023-05-10T19:52:07.832Z,72.33
2023-05-10T19:54:34.691Z,72.37
2023-05-10T19:57:01.550Z,69.67
2023-05-10T19:59:28.317Z,72.17
2023-05-10T20:01:55.087Z,72.03
2023-05-10T20:04:22.535Z,73.47
2023-05-10T20:06:49.404Z,72.17
2023-05-10T20:09:16.513Z,71.97
2023-05-10T20:11:43.469Z,74.53
2023-05-10T20:14:10.404Z,70.37
2023-05-10T20:16:37.305Z,68.00
2023-05-10T20:19:04.659Z,69.63
2023-05-10T20:21:33.481Z,71.70
2023-05-10T20:24:00.338Z,70.23
2023-05-10T20:26:27.201Z,69.07
2023-05-10T20:28:54.079Z,68.37
2023-05-10T20:31:20.885Z,70.23
2023-05-10T20:33:47.821Z,66.73
2023-05-10T20:36:14.989Z,64.20
2023-05-10T20:38:41.921Z,66.77
2023-05-10T20:41:08.785Z,69.80
2023-05-10T20:43:35.991Z,68.83
2023-05-10T20:46:05.641Z,66.10
2023-05-10T20:48:33.080Z,69.33
2023-05-10T20:51:02.464Z,70.50
2023-05-10T20:53:29.949Z,70.73
2023-05-10T20:55:56.859Z,68.87
2023-05-10T20:58:23.794Z,68.57
2023-05-10T21:00:50.709Z,66.80
2023-05-10T21:03:17.600Z,66.17
2023-05-10T21:05:44.388Z,65.20
2023-05-10T21:08:11.215Z,65.17
2023-05-10T21:10:38.028Z,66.17
2023-05-10T21:13:04.959Z,67.23
2023-05-10T21:15:31.786Z,65.90
2023-05-10T21:17:58.697Z,69.33
2023-05-10T21:20:25.750Z,66.43
2023-05-10T21:22:52.523Z,65.33
2023-05-10T21:25:19.271Z,65.70
2023-05-10T21:27:46.028Z,65.57
2023-05-10T21:30:12.974Z,66.70
2023-05-10T21:32:39.881Z,69.00
2023-05-10T21:35:07.378Z,66.17
2023-05-10T21:37:34.352Z,64.90
2023-05-10T21:40:01.154Z,68.43
2023-05-10T21:42:28.059Z,65.30
2023-05-10T21:44:55.073Z,62.97
2023-05-10T21:47:22.408Z,64.13
2023-05-10T21:49:50.480Z,63.00
2023-05-10T21:52:17.393Z,62.03
2023-05-10T21:54:44.183Z,61.33
2023-05-10T21:57:11.121Z,61.63
2023-05-10T21:59:37.876Z,64.70
2023-05-10T22:02:04.885Z,62.13
2023-05-10T22:04:31.821Z,65.30
2023-05-10T22:06:58.562Z,61.73
2023-05-10T22:09:25.456Z,58.53
2023-05-10T22:11:52.254Z,58.37
2023-05-10T22:14:19.045Z,53.67
2023-05-10T22:16:46.009Z,57.53
2023-05-10T22:19:12.904Z,57.47
2023-05-10T22:21:39.858Z,57.97
2023-05-10T22:24:06.765Z,57.57
2023-05-10T22:26:33.533Z,59.10
2023-05-10T22:29:00.301Z,63.53
2023-05-10T22:31:27.349Z,58.83
2023-05-10T22:33:54.224Z,60.57
2023-05-10T22:36:21.038Z,64.83
2023-05-10T22:38:47.857Z,64.00
2023-05-10T22:41:14.717Z,64.50
2023-05-10T22:43:41.958Z,62.03
2023-05-10T22:46:08.778Z,64.03
2023-05-10T22:48:36.020Z,64.10
2023-05-10T22:51:03.050Z,63.57
2023-05-10T22:53:29.908Z,64.37
2023-05-10T22:55:56.790Z,63.43
2023-05-10T22:58:23.649Z,62.77
2023-05-10T23:00:50.506Z,62.10
2023-05-10T23:03:18.122Z,62.13
2023-05-10T23:05:44.855Z,62.00
2023-05-10T23:08:11.709Z,61.93
2023-05-10T23:10:39.140Z,63.87
2023-05-10T23:13:06.323Z,64.70
2023-05-10T23:15:33.325Z,62.00
2023-05-10T23:18:04.496Z,64.03
2023-05-10T23:20:31.507Z,70.47
2023-05-10T23:22:58.459Z,68.87
2023-05-10T23:25:25.641Z,70.73
2023-05-10T23:27:52.408Z,63.67
2023-05-10T23:30:19.625Z,63.33
2023-05-10T23:32:46.610Z,60.23
2023-05-10T23:35:13.362Z,59.60
2023-05-10T23:37:41.008Z,62.23
2023-05-10T23:40:08.391Z,60.73
2023-05-10T23:42:35.307Z,61.60
2023-05-10T23:45:02.789Z,61.87
2023-05-10T23:47:29.657Z,64.50
2023-05-10T23:49:57.052Z,63.47
2023-05-10T23:52:25.188Z,69.33
2023-05-10T23:54:52.599Z,68.20
2023-05-10T23:57:19.811Z,72.13
2023-05-10T23:59:46.702Z,73.70
